Time;durP1;ratioP1;P1;durP2;ratioP2;P2;SDS_P1;SDS_P2;PMS_P1;PMS_P2;Temp;Humidity;BMP_temperature;BMP_pressure;BME280_temperature;BME280_humidity;BME280_pressure;Samples;Min_cycle;Max_cycle;Signal;HPM_P1;HPM_P2
2023/12/11 00:14:19;;;;;;;10.13;6.45;;;;;;;5.93;58.88;94957.22;5125890;27;20375;-75
2023/12/11 00:16:45;;;;;;;8.73;6.30;;;;;;;5.80;59.23;94965.13;5126535;27;20030;-75
2023/12/11 00:19:11;;;;;;;9.32;5.50;;;;;;;5.79;59.48;94961.63;5125641;27;20047;-74
2023/12/11 00:21:36;;;;;;;9.38;5.90;;;;;;;5.66;59.81;94968.75;5126368;27;20054;-74
2023/12/11 00:24:03;;;;;;;8.50;5.97;;;;;;;5.57;60.03;94961.03;5124995;27;20556;-75
2023/12/11 00:26:28;;;;;;;9.18;6.15;;;;;;;5.55;60.30;94957.16;5126778;27;20024;-75
2023/12/11 00:28:54;;;;;;;8.35;5.68;;;;;;;5.52;60.32;94968.88;5123865;28;20508;-74
2023/12/11 00:31:19;;;;;;;9.10;5.85;;;;;;;5.45;60.56;94968.94;5126374;27;20023;-74
2023/12/11 00:33:44;;;;;;;11.13;6.05;;;;;;;5.41;60.82;94968.22;5125602;27;20027;-74
2023/12/11 00:36:10;;;;;;;9.82;5.82;;;;;;;5.42;60.70;94967.03;5125546;27;20050;-74
2023/12/11 00:38:35;;;;;;;10.10;5.68;;;;;;;5.33;60.83;94973.72;5126099;27;20481;-74
2023/12/11 00:41:01;;;;;;;9.88;5.85;;;;;;;5.37;60.84;94984.56;5124091;27;20031;-73
2023/12/11 00:43:26;;;;;;;8.55;5.18;;;;;;;5.44;60.50;94975.56;5125514;27;20031;-74
2023/12/11 00:45:51;;;;;;;9.73;5.70;;;;;;;5.46;60.36;94971.28;5123143;28;20062;-75
2023/12/11 00:48:18;;;;;;;10.63;5.88;;;;;;;5.40;60.36;94983.03;5125657;27;20513;-74
2023/12/11 00:50:43;;;;;;;6.93;5.40;;;;;;;5.37;60.70;94981.84;5124733;27;20023;-74
2023/12/11 00:53:08;;;;;;;10.25;5.95;;;;;;;5.30;60.80;94984.66;5125720;27;20027;-74
2023/12/11 00:55:34;;;;;;;7.07;5.10;;;;;;;5.28;60.94;94982.31;5125263;27;20032;-74
2023/12/11 00:57:59;;;;;;;9.85;5.53;;;;;;;5.27;61.04;94979.97;5124865;27;20059;-74
2023/12/11 01:00:25;;;;;;;8.88;5.43;;;;;;;5.27;60.66;94974.53;5125558;27;20415;-74
2023/12/11 01:02:50;;;;;;;8.43;4.82;;;;;;;5.24;60.73;94972.63;5122706;27;20096;-74
2023/12/11 01:05:16;;;;;;;6.22;4.15;;;;;;;5.24;60.70;94967.16;5107686;27;20028;-74
2023/12/11 01:07:41;;;;;;;7.93;5.47;;;;;;;5.22;60.89;94973.03;5119714;28;20020;-74
2023/12/11 01:10:07;;;;;;;9.02;5.15;;;;;;;5.20;61.00;94974.59;5107648;27;20038;-73
2023/12/11 01:12:33;;;;;;;7.80;5.07;;;;;;;5.20;61.10;94966.41;5105085;28;20642;-74
2023/12/11 01:14:58;;;;;;;8.30;5.60;;;;;;;5.19;61.20;94967.59;5092581;28;20035;-75
2023/12/11 01:17:24;;;;;;;7.63;5.20;;;;;;;5.17;61.21;94972.69;5091137;28;20181;-75
2023/12/11 01:19:49;;;;;;;7.25;4.97;;;;;;;5.16;61.30;94962.94;5094942;28;20039;-75
2023/12/11 01:22:14;;;;;;;11.23;5.50;;;;;;;5.17;61.30;94959.81;5111569;28;20023;-74
2023/12/11 01:24:40;;;;;;;7.18;4.90;;;;;;;5.20;60.93;94969.13;5110148;28;20530;-74
2023/12/11 01:27:06;;;;;;;8.23;5.38;;;;;;;5.29;60.60;94967.50;5103410;28;20031;-74
2023/12/11 01:29:31;;;;;;;8.63;5.57;;;;;;;5.28;60.59;94965.97;5109896;28;20035;-73
2023/12/11 01:31:57;;;;;;;5.85;4.47;;;;;;;5.26;60.46;94959.34;5102717;27;20111;-75
2023/12/11 01:34:22;;;;;;;7.78;5.00;;;;;;;5.21;60.66;94965.22;5090553;28;20032;-73
2023/12/11 01:36:48;;;;;;;7.00;4.70;;;;;;;5.22;60.64;94966.81;5103704;28;20088;-74
2023/12/11 01:39:13;;;;;;;6.63;4.78;;;;;;;5.31;60.58;94962.44;5090842;28;20154;-74
2023/12/11 01:41:39;;;;;;;9.55;4.93;;;;;;;5.34;60.29;94966.31;5102874;28;20023;-75
2023/12/11 01:44:04;;;;;;;6.63;4.38;;;;;;;5.36;60.26;94958.50;5090976;28;20027;-74
2023/12/11 01:46:31;;;;;;;5.70;4.20;;;;;;;5.31;60.36;94950.75;5090361;28;20031;-74
2023/12/11 01:48:56;;;;;;;7.32;4.85;;;;;;;5.31;60.40;94954.25;5104114;28;20100;-74
2023/12/11 01:51:22;;;;;;;7.15;4.03;;;;;;;5.25;60.54;94944.19;5093912;28;20059;-74
2023/12/11 01:53:49;;;;;;;6.10;4.03;;;;;;;5.32;60.46;94947.63;5100837;28;20105;-74
2023/12/11 01:56:17;;;;;;;6.25;3.95;;;;;;;5.32;60.23;94944.88;5102750;28;20567;-74
2023/12/11 01:58:42;;;;;;;5.63;3.90;;;;;;;5.32;60.37;94958.53;5089619;28;20095;-74
2023/12/11 02:01:08;;;;;;;5.88;3.65;;;;;;;5.30;60.34;94952.69;5090345;28;20028;-75
2023/12/11 02:03:34;;;;;;;5.30;3.95;;;;;;;5.29;60.65;94959.34;5089398;28;20106;-74
2023/12/11 02:05:59;;;;;;;6.30;3.45;;;;;;;5.32;60.72;94952.28;5090572;28;20024;-75
2023/12/11 02:08:25;;;;;;;5.80;3.50;;;;;;;5.33;60.70;94949.19;5105379;28;20056;-73
2023/12/11 02:10:50;;;;;;;5.72;3.80;;;;;;;5.37;60.42;94949.13;5109306;28;20117;-74
2023/12/11 02:13:15;;;;;;;6.20;3.72;;;;;;;5.35;60.59;94948.78;5109582;27;20457;-74
2023/12/11 02:15:43;;;;;;;6.38;4.35;;;;;;;5.41;60.48;94955.34;5108308;28;20031;-73
2023/12/11 02:18:10;;;;;;;5.28;3.50;;;;;;;5.37;60.65;94949.13;5109432;28;20023;-74
2023/12/11 02:20:37;;;;;;;6.38;4.03;;;;;;;5.33;60.74;94956.56;5091095;28;20478;-74
2023/12/11 02:23:25;;;;;;;6.68;4.22;;;;;;;5.36;60.76;94949.56;5090049;28;20482;-74
2023/12/11 02:26:12;;;;;;;6.97;4.60;;;;;;;5.30;60.90;94960.09;5090579;28;20059;-74
2023/12/11 02:28:37;;;;;;;6.45;4.40;;;;;;;5.21;60.99;94962.50;5106662;28;20025;-73
2023/12/11 02:31:03;;;;;;;5.63;3.95;;;;;;;5.18;61.04;94960.59;5109317;28;20024;-74
2023/12/11 02:33:28;;;;;;;6.57;4.38;;;;;;;5.16;60.92;94960.22;5103048;28;20051;-74
2023/12/11 02:35:54;;;;;;;5.45;3.60;;;;;;;5.20;60.99;94959.00;5099568;28;20048;-74
2023/12/11 02:38:19;;;;;;;6.18;4.07;;;;;;;5.18;61.21;94964.09;5087411;28;20028;-75
2023/12/11 02:40:44;;;;;;;7.55;4.10;;;;;;;5.17;60.96;94951.66;5095566;28;20032;-74
2023/12/11 02:43:10;;;;;;;5.10;3.58;;;;;;;5.09;61.25;94955.59;5087995;28;20101;-75
2023/12/11 02:45:35;;;;;;;8.10;4.63;;;;;;;5.10;61.22;94954.41;5094906;28;20011;-74
2023/12/11 02:48:04;;;;;;;5.50;3.70;;;;;;;5.05;61.39;94960.31;5094523;28;20095;-75
2023/12/11 02:50:30;;;;;;;5.53;4.47;;;;;;;5.00;61.36;94958.00;5087211;28;20106;-73
2023/12/11 02:52:57;;;;;;;6.45;4.07;;;;;;;4.96;61.51;94952.56;5088278;28;20489;-73
2023/12/11 02:55:22;;;;;;;5.30;3.60;;;;;;;4.99;61.34;94956.47;5096243;28;20081;-73
2023/12/11 02:57:48;;;;;;;6.13;4.15;;;;;;;5.01;61.04;94959.56;5104185;28;20036;-73
2023/12/11 03:00:13;;;;;;;4.93;3.15;;;;;;;4.93;60.66;94953.38;5097125;28;20097;-74
2023/12/11 03:02:39;;;;;;;4.65;3.42;;;;;;;5.02;60.42;94961.09;5104983;28;20047;-73
2023/12/11 03:05:04;;;;;;;3.70;2.67;;;;;;;4.99;60.43;94948.28;5104620;28;20026;-74
2023/12/11 03:07:30;;;;;;;3.97;2.88;;;;;;;5.08;60.06;94956.78;5090573;28;20441;-75
2023/12/11 03:09:55;;;;;;;5.18;3.03;;;;;;;4.99;59.77;94942.84;5088334;28;20046;-75
2023/12/11 03:12:20;;;;;;;3.80;2.60;;;;;;;4.99;60.06;94945.56;5102161;28;20134;-74
2023/12/11 03:14:46;;;;;;;3.45;2.85;;;;;;;5.06;59.98;94950.97;5108678;28;20434;-75
2023/12/11 03:17:11;;;;;;;4.82;3.28;;;;;;;5.01;60.04;94945.94;5100034;28;20477;-74
2023/12/11 03:19:37;;;;;;;4.53;3.22;;;;;;;4.98;60.18;94939.31;5095909;28;20035;-74
2023/12/11 03:22:02;;;;;;;4.15;3.03;;;;;;;4.97;59.97;94937.78;5087583;28;20598;-75
2023/12/11 03:24:28;;;;;;;4.00;2.63;;;;;;;4.94;60.20;94952.22;5086623;28;20066;-74
2023/12/11 03:26:53;;;;;;;3.42;2.63;;;;;;;4.91;60.28;94947.53;5089966;28;20027;-74
2023/12/11 03:29:19;;;;;;;4.80;3.80;;;;;;;4.92;60.37;94949.09;5087376;28;20111;-74
2023/12/11 03:31:44;;;;;;;5.38;3.83;;;;;;;4.87;60.66;94935.13;5091157;28;20066;-74
2023/12/11 03:34:10;;;;;;;5.35;3.55;;;;;;;4.91;60.38;94942.09;5095772;28;20646;-74
2023/12/11 03:36:35;;;;;;;5.85;3.10;;;;;;;4.95;60.06;94936.63;5091175;28;20031;-73
2023/12/11 03:39:00;;;;;;;4.80;3.10;;;;;;;4.96;60.02;94936.22;5107136;28;20019;-73
2023/12/11 03:41:26;;;;;;;4.82;2.70;;;;;;;5.00;59.89;94936.97;5103167;28;20099;-74
2023/12/11 03:43:51;;;;;;;3.78;2.58;;;;;;;4.96;59.92;94940.91;5096276;28;20402;-74
2023/12/11 03:46:16;;;;;;;5.70;3.15;;;;;;;4.87;59.82;94918.78;5098875;28;20045;-74
2023/12/11 03:48:42;;;;;;;6.60;3.30;;;;;;;4.95;59.81;94933.91;5097691;28;20476;-73
2023/12/11 03:51:07;;;;;;;4.45;3.30;;;;;;;4.91;60.09;94938.59;5101574;28;20031;-73
2023/12/11 03:53:33;;;;;;;5.38;3.00;;;;;;;4.89;59.98;94941.72;5093954;28;20035;-74
2023/12/11 03:55:58;;;;;;;4.28;3.03;;;;;;;4.91;60.27;94944.81;5098747;28;20038;-73
2023/12/11 03:58:23;;;;;;;5.60;3.08;;;;;;;4.88;60.22;94940.19;5087203;28;20429;-74
2023/12/11 04:00:49;;;;;;;5.03;3.10;;;;;;;4.88;60.37;94934.75;5087130;28;20344;-75
2023/12/11 04:03:14;;;;;;;5.15;3.65;;;;;;;4.88;60.39;94944.88;5091733;28;20039;-74
2023/12/11 04:05:40;;;;;;;6.90;4.25;;;;;;;4.91;60.66;94944.06;5097549;28;20039;-74
2023/12/11 04:08:05;;;;;;;5.70;3.67;;;;;;;4.90;60.64;94951.44;5102978;28;20106;-74
2023/12/11 04:10:31;;;;;;;6.30;3.92;;;;;;;4.88;60.95;94942.13;5107503;28;20037;-75
2023/12/11 04:13:00;;;;;;;6.13;4.20;;;;;;;4.86;60.79;94934.34;5096439;28;20232;-75
2023/12/11 04:15:25;;;;;;;7.18;4.68;;;;;;;4.85;60.60;94940.19;5087809;28;20020;-74
2023/12/11 04:17:50;;;;;;;6.95;4.50;;;;;;;4.83;60.87;94946.06;5092982;28;20030;-74
2023/12/11 04:20:16;;;;;;;6.32;4.03;;;;;;;4.84;60.89;94944.09;5105070;28;20023;-74
2023/12/11 04:22:41;;;;;;;6.05;4.10;;;;;;;4.87;60.76;94948.75;5094168;28;20114;-75
2023/12/11 04:25:07;;;;;;;5.38;3.88;;;;;;;4.95;60.41;94945.59;5100494;28;20036;-73
2023/12/11 04:27:32;;;;;;;5.82;4.00;;;;;;;4.95;60.23;94944.81;5106993;28;20485;-73
2023/12/11 04:29:58;;;;;;;6.15;3.92;;;;;;;5.00;60.20;94950.59;5106053;28;20057;-74
2023/12/11 04:32:23;;;;;;;5.70;3.97;;;;;;;5.00;60.32;94947.88;5096004;28;20024;-74
2023/12/11 04:34:49;;;;;;;6.30;4.13;;;;;;;5.00;60.30;94947.13;5102482;28;20554;-74
2023/12/11 04:37:14;;;;;;;5.90;4.45;;;;;;;5.04;60.07;94943.16;5106160;28;20035;-73
2023/12/11 04:39:39;;;;;;;6.10;4.00;;;;;;;5.01;60.44;94940.47;5101755;28;20047;-74
2023/12/11 04:42:05;;;;;;;9.43;5.38;;;;;;;5.02;60.31;94937.34;5105765;28;20027;-74
2023/12/11 04:44:30;;;;;;;5.75;3.67;;;;;;;5.11;59.84;94941.59;5095396;28;20076;-75
2023/12/11 04:46:56;;;;;;;4.88;3.70;;;;;;;5.19;59.92;94938.38;5106014;28;20173;-74
2023/12/11 04:49:21;;;;;;;5.60;3.83;;;;;;;5.27;59.71;94955.44;5091191;28;20031;-74
2023/12/11 04:51:46;;;;;;;5.82;4.00;;;;;;;5.25;59.79;94947.69;5104813;28;20516;-74
2023/12/11 04:54:12;;;;;;;6.50;4.10;;;;;;;5.11;59.98;94942.34;5107035;28;20023;-75
2023/12/11 04:56:38;;;;;;;5.45;4.00;;;;;;;5.21;59.99;94951.59;5094663;28;20034;-74
2023/12/11 04:59:03;;;;;;;5.60;3.92;;;;;;;5.19;60.30;94948.53;5101267;28;20055;-75
2023/12/11 05:01:28;;;;;;;6.20;3.92;;;;;;;5.21;60.24;94951.59;5102736;28;20073;-73
2023/12/11 05:03:54;;;;;;;6.63;4.25;;;;;;;5.24;60.28;94946.13;5097982;28;20471;-75
2023/12/11 05:06:19;;;;;;;6.60;4.57;;;;;;;5.23;60.36;94939.13;5091419;28;20492;-74
2023/12/11 05:08:45;;;;;;;6.25;4.00;;;;;;;5.22;60.35;94947.72;5100226;28;20478;-74
2023/12/11 05:11:11;;;;;;;6.22;4.05;;;;;;;5.25;60.40;94944.19;5096817;28;20110;-76
2023/12/11 05:13:36;;;;;;;6.32;4.05;;;;;;;5.26;60.19;94948.47;5096580;28;20043;-76
2023/12/11 05:16:02;;;;;;;8.27;4.78;;;;;;;5.20;60.24;94939.94;5101220;28;20028;-74
2023/12/11 05:18:27;;;;;;;6.00;4.57;;;;;;;5.22;60.29;94947.72;5089680;28;20047;-75
2023/12/11 05:20:53;;;;;;;7.03;4.10;;;;;;;5.24;60.40;94956.28;5098940;28;20059;-74
2023/12/11 05:23:18;;;;;;;6.70;4.10;;;;;;;5.23;60.21;94946.53;5093134;28;20024;-74
2023/12/11 05:25:44;;;;;;;6.95;4.38;;;;;;;5.29;60.10;94958.56;5101221;28;20040;-74
2023/12/11 05:28:09;;;;;;;6.53;4.70;;;;;;;5.30;60.12;94955.44;5093215;28;20032;-74
2023/12/11 05:30:35;;;;;;;7.63;4.40;;;;;;;5.29;60.04;94951.16;5097884;28;20028;-74
2023/12/11 05:33:00;;;;;;;6.35;4.65;;;;;;;5.32;59.89;94957.75;5089785;28;20395;-74
2023/12/11 05:35:26;;;;;;;7.03;4.45;;;;;;;5.45;59.51;94963.47;5096889;28;20020;-74
2023/12/11 05:37:51;;;;;;;8.15;5.05;;;;;;;5.46;59.30;94965.06;5094985;28;20016;-75
2023/12/11 05:40:17;;;;;;;7.47;4.57;;;;;;;5.48;59.31;94966.19;5104356;28;20074;-74
2023/12/11 05:42:42;;;;;;;6.50;4.18;;;;;;;5.47;59.69;94974.78;5092355;28;20023;-75
2023/12/11 05:45:09;;;;;;;6.15;4.43;;;;;;;5.50;59.74;94973.94;5092265;28;20711;-73
2023/12/11 05:47:34;;;;;;;8.07;4.20;;;;;;;5.45;59.62;94969.72;5108319;28;20039;-74
2023/12/11 05:50:00;;;;;;;6.80;4.75;;;;;;;5.43;59.71;94971.28;5109980;28;20032;-74
2023/12/11 05:52:25;;;;;;;6.90;4.18;;;;;;;5.51;59.67;94979.03;5108496;28;20416;-74
2023/12/11 05:54:51;;;;;;;7.30;4.53;;;;;;;5.55;59.50;94987.16;5109640;27;20077;-74
2023/12/11 05:57:16;;;;;;;6.57;4.03;;;;;;;5.53;59.67;94989.53;5109724;28;20023;-73
2023/12/11 05:59:42;;;;;;;9.48;4.70;;;;;;;5.57;59.36;94999.22;5108756;28;20591;-73
2023/12/11 06:02:07;;;;;;;8.38;5.30;;;;;;;5.46;59.89;94997.75;5109629;28;20028;-74
2023/12/11 06:04:33;;;;;;;6.78;4.70;;;;;;;5.43;60.01;94996.59;5107987;28;20111;-75
2023/12/11 06:06:58;;;;;;;6.63;4.63;;;;;;;5.44;60.07;94989.97;5109652;28;20028;-75
2023/12/11 06:09:24;;;;;;;6.03;4.57;;;;;;;5.39;60.43;94989.63;5108507;28;20024;-75
2023/12/11 06:11:49;;;;;;;7.10;4.35;;;;;;;5.37;60.47;94983.81;5109862;28;20027;-74
2023/12/11 06:14:14;;;;;;;6.15;4.38;;;;;;;5.38;60.40;94988.06;5108630;28;20152;-74
2023/12/11 06:16:41;;;;;;;7.45;4.82;;;;;;;5.40;60.38;94996.66;5108087;28;20139;-75
2023/12/11 06:19:06;;;;;;;8.73;4.75;;;;;;;5.42;60.44;94997.78;5108922;28;20028;-74
2023/12/11 06:21:32;;;;;;;7.80;4.43;;;;;;;5.46;60.19;94995.03;5107942;28;20072;-74
2023/12/11 06:23:57;;;;;;;6.50;4.75;;;;;;;5.51;60.11;94998.13;5109309;28;20049;-74
2023/12/11 06:26:28;;;;;;;7.78;4.80;;;;;;;5.49;60.01;95000.44;5107718;28;20051;-74
2023/12/11 06:28:54;;;;;;;8.00;5.18;;;;;;;5.53;60.00;95001.19;5109056;27;20030;-74
2023/12/11 06:31:20;;;;;;;8.40;4.85;;;;;;;5.51;59.91;94987.19;5108169;28;20020;-75
2023/12/11 06:33:45;;;;;;;12.18;6.88;;;;;;;5.43;60.04;94991.16;5108469;28;20019;-73
2023/12/11 06:36:10;;;;;;;9.70;5.97;;;;;;;5.55;59.68;94995.34;5107380;28;20031;-74
2023/12/11 06:38:37;;;;;;;9.18;6.00;;;;;;;5.53;59.73;94987.56;5107785;28;20051;-74
2023/12/11 06:41:02;;;;;;;10.75;6.75;;;;;;;5.58;59.85;94997.28;5109211;28;20019;-75
2023/12/11 06:43:27;;;;;;;11.10;6.60;;;;;;;5.69;59.55;94994.44;5107353;28;20386;-73
2023/12/11 06:45:53;;;;;;;11.90;6.68;;;;;;;5.68;59.55;94999.13;5108836;28;20424;-74
2023/12/11 06:48:18;;;;;;;12.13;7.93;;;;;;;5.77;59.04;95004.09;5107686;28;20077;-73
2023/12/11 06:50:44;;;;;;;12.68;6.95;;;;;;;5.79;58.91;94991.63;5108261;28;20023;-74
2023/12/11 06:53:09;;;;;;;13.27;7.72;;;;;;;5.77;58.96;94993.97;5108013;28;20517;-74
2023/12/11 06:55:35;;;;;;;13.30;7.82;;;;;;;5.78;59.08;94997.47;5108366;28;20020;-75
2023/12/11 06:58:01;;;;;;;11.25;7.63;;;;;;;5.80;59.03;94997.84;5108644;28;20027;-74
2023/12/11 07:00:26;;;;;;;13.93;7.53;;;;;;;5.88;58.80;95010.25;5107016;28;20477;-74
2023/12/11 07:02:52;;;;;;;12.23;7.65;;;;;;;5.98;58.63;95008.63;5108153;28;20027;-73
2023/12/11 07:05:17;;;;;;;12.57;8.13;;;;;;;5.95;58.48;95010.19;5105856;28;20039;-80
2023/12/11 07:07:43;;;;;;;12.82;7.53;;;;;;;5.96;58.46;95013.69;5108349;28;20077;-75
2023/12/11 07:10:09;;;;;;;13.48;7.30;;;;;;;5.96;58.39;95022.66;5107478;28;20024;-75
2023/12/11 07:12:37;;;;;;;16.50;6.95;;;;;;;6.07;58.16;95031.50;5107233;28;20039;-75
2023/12/11 07:15:02;;;;;;;13.77;7.45;;;;;;;6.04;58.29;95035.06;5108388;28;20027;-75
2023/12/11 07:17:28;;;;;;;16.42;8.77;;;;;;;6.02;58.18;95023.00;5106929;28;20042;-80
2023/12/11 07:19:54;;;;;;;16.48;8.05;;;;;;;6.13;58.04;95034.56;5107198;28;20024;-77
2023/12/11 07:22:19;;;;;;;14.65;7.88;;;;;;;6.15;58.23;95034.19;5107111;28;20030;-82
2023/12/11 07:24:45;;;;;;;13.43;7.53;;;;;;;6.20;58.37;95041.94;5108336;28;20438;-84
2023/12/11 07:27:11;;;;;;;11.60;7.10;;;;;;;6.30;58.21;95047.28;5106190;28;20027;-80
2023/12/11 07:29:36;;;;;;;11.77;7.40;;;;;;;6.28;58.04;95043.41;5107725;28;20546;-77
2023/12/11 07:32:02;;;;;;;11.45;6.25;;;;;;;6.30;57.87;95050.00;5107174;28;20046;-76
2023/12/11 07:34:27;;;;;;;12.27;6.95;;;;;;;6.26;58.04;95053.97;5107139;28;20462;-82
2023/12/11 07:36:53;;;;;;;12.85;6.70;;;;;;;6.36;57.50;95047.59;5107862;28;20027;-81
2023/12/11 07:39:18;;;;;;;11.68;6.53;;;;;;;6.37;57.45;95044.47;5106995;28;20051;-78
2023/12/11 07:41:44;;;;;;;10.43;5.63;;;;;;;6.33;57.67;95043.75;5107836;28;20383;-85
2023/12/11 07:44:09;;;;;;;12.82;6.35;;;;;;;6.40;57.70;95045.63;5107119;28;20047;-82
2023/12/11 07:46:34;;;;;;;7.95;5.55;;;;;;;6.41;57.60;95051.84;5107567;28;20019;-78
2023/12/11 07:49:00;;;;;;;9.95;5.10;;;;;;;6.29;57.48;95044.94;5106957;28;20027;-88
2023/12/11 07:51:26;;;;;;;10.70;5.00;;;;;;;6.41;57.78;95065.50;5106058;28;20428;-77
2023/12/11 07:53:53;;;;;;;8.27;5.38;;;;;;;6.42;57.69;95053.38;5089050;28;20024;-86
2023/12/11 07:56:22;;;;;;;9.63;5.18;;;;;;;6.58;57.29;95059.84;5090367;28;20038;-85
2023/12/11 07:58:49;;;;;;;8.60;5.40;;;;;;;6.46;57.08;95035.78;5106527;28;20111;-81
2023/12/11 08:01:14;;;;;;;10.48;5.53;;;;;;;6.60;57.06;95051.25;5104946;28;20023;-82
2023/12/11 08:03:40;;;;;;;9.18;5.38;;;;;;;6.72;56.79;95060.88;5107364;28;20076;-76
2023/12/11 08:06:08;;;;;;;7.90;4.47;;;;;;;6.79;56.75;95060.78;5088672;28;20029;-85
2023/12/11 08:08:35;;;;;;;8.38;5.32;;;;;;;6.74;56.98;95063.97;5106381;28;20024;-74
2023/12/11 08:11:00;;;;;;;9.23;5.47;;;;;;;6.82;56.69;95054.47;5107406;28;20429;-80
2023/12/11 08:13:26;;;;;;;8.98;5.63;;;;;;;6.88;56.80;95052.84;5088605;28;20048;-86
2023/12/11 08:15:51;;;;;;;10.02;5.72;;;;;;;6.93;56.81;95057.84;5108330;28;20023;-89
2023/12/11 08:18:16;;;;;;;10.27;5.50;;;;;;;7.07;56.69;95054.94;5088280;28;20085;-85
2023/12/11 08:20:42;;;;;;;10.85;5.20;;;;;;;7.18;56.45;95052.84;5107584;28;20401;-87
2023/12/11 08:23:08;;;;;;;10.18;5.05;;;;;;;7.27;55.77;95057.00;5107584;28;20055;-86
2023/12/11 08:25:33;;;;;;;9.40;5.32;;;;;;;7.30;55.96;95064.41;5111537;28;20051;-87
2023/12/11 08:27:59;;;;;;;7.10;4.97;;;;;;;7.30;56.12;95056.22;5110920;28;20027;-86
2023/12/11 08:30:24;;;;;;;9.38;5.68;;;;;;;7.39;55.85;95050.97;5111298;28;20485;-84
2023/12/11 08:32:50;;;;;;;9.93;6.43;;;;;;;7.54;55.93;95055.06;5109564;28;20034;-76
2023/12/11 08:35:15;;;;;;;10.70;6.75;;;;;;;7.61;55.76;95045.97;5092111;28;20039;-77
2023/12/11 08:37:41;;;;;;;10.55;5.68;;;;;;;7.77;54.60;95053.53;5111153;28;20023;-77
2023/12/11 08:40:07;;;;;;;14.15;6.82;;;;;;;7.81;54.68;95048.78;5110208;28;20612;-78
2023/12/11 08:42:33;;;;;;;8.43;6.20;;;;;;;7.95;54.43;95054.00;5111489;28;20075;-77
2023/12/11 08:44:58;;;;;;;10.35;6.05;;;;;;;8.01;53.95;95057.81;5108722;28;20111;-77
2023/12/11 08:47:24;;;;;;;9.02;5.93;;;;;;;7.99;54.17;95046.53;5111024;28;20068;-77
2023/12/11 08:49:50;;;;;;;9.07;6.75;;;;;;;8.06;54.13;95042.88;5108747;28;20030;-76
2023/12/11 08:52:15;;;;;;;9.15;5.90;;;;;;;8.24;53.48;95041.38;5110572;28;20114;-77
2023/12/11 08:54:41;;;;;;;9.85;6.30;;;;;;;8.17;53.69;95033.28;5110673;28;20161;-76
2023/12/11 08:57:06;;;;;;;9.75;6.30;;;;;;;8.28;53.81;95035.06;5109925;28;20032;-79
2023/12/11 08:59:32;;;;;;;10.63;7.05;;;;;;;8.58;53.15;95028.66;5110862;28;20031;-78
2023/12/11 09:01:57;;;;;;;10.52;6.72;;;;;;;8.76;52.25;95024.34;5110042;28;20038;-77
2023/12/11 09:04:23;;;;;;;10.90;7.85;;;;;;;9.15;51.34;95014.53;5109457;28;20813;-76
2023/12/11 09:06:48;;;;;;;13.82;7.75;;;;;;;9.71;50.16;95022.66;5109818;28;20012;-76
2023/12/11 09:09:14;;;;;;;8.07;6.38;;;;;;;10.25;48.49;95021.34;5110731;28;20046;-77
2023/12/11 09:11:39;;;;;;;10.05;5.97;;;;;;;11.49;45.46;95013.50;5110709;28;20031;-77
2023/12/11 09:14:04;;;;;;;8.95;5.82;;;;;;;12.30;43.48;95007.31;5109422;27;20467;-77
2023/12/11 09:16:30;;;;;;;10.25;5.53;;;;;;;14.29;38.77;94996.19;5109052;28;20454;-78
2023/12/11 09:18:56;;;;;;;8.23;5.18;;;;;;;15.84;35.75;94982.53;5108421;28;20031;-77
2023/12/11 09:21:22;;;;;;;6.22;4.45;;;;;;;17.21;33.25;94975.94;5108282;28;20089;-77
2023/12/11 09:23:48;;;;;;;8.75;4.15;;;;;;;18.52;31.05;94980.09;5107972;28;20055;-78
2023/12/11 09:26:13;;;;;;;3.47;3.10;;;;;;;19.51;29.10;94980.88;5109582;28;20058;-78
2023/12/11 09:28:39;;;;;;;4.07;3.03;;;;;;;20.59;27.25;94978.28;5108227;28;20134;-79
2023/12/11 09:31:05;;;;;;;5.72;2.90;;;;;;;21.41;25.88;94967.81;5109179;28;20111;-78
2023/12/11 09:33:30;;;;;;;7.70;2.95;;;;;;;22.15;24.90;94972.13;5107387;28;20020;-76
2023/12/11 09:35:56;;;;;;;6.07;3.70;;;;;;;22.98;23.83;94972.31;5107916;28;20023;-75
2023/12/11 09:38:22;;;;;;;5.15;3.60;;;;;;;23.54;23.28;94967.13;5109379;28;20019;-76
2023/12/11 09:40:47;;;;;;;7.93;4.32;;;;;;;24.34;22.14;94967.94;5107510;28;20585;-77
2023/12/11 09:43:14;;;;;;;8.32;3.92;;;;;;;24.90;21.76;94968.06;5109465;28;20016;-76
2023/12/11 09:45:41;;;;;;;6.07;4.60;;;;;;;25.64;20.70;94971.38;5107714;28;20019;-77
2023/12/11 09:48:06;;;;;;;5.93;3.78;;;;;;;26.25;19.89;94960.34;5107598;28;20028;-77
2023/12/11 09:50:32;;;;;;;6.30;3.60;;;;;;;26.33;19.48;94963.31;5106750;28;20119;-77
2023/12/11 09:52:59;;;;;;;7.68;3.50;;;;;;;26.96;19.11;94951.03;5108179;28;20042;-77
2023/12/11 09:55:25;;;;;;;5.20;3.67;;;;;;;27.30;18.73;94943.91;5108729;28;20024;-76
2023/12/11 09:57:51;;;;;;;6.93;3.38;;;;;;;27.73;18.65;94952.66;5107316;28;20085;-76
2023/12/11 10:00:17;;;;;;;5.88;2.80;;;;;;;27.99;18.40;94943.28;5109001;28;20032;-76
2023/12/11 10:02:47;;;;;;;7.65;3.17;;;;;;;28.37;17.36;94936.41;5106704;28;20023;-76
2023/12/11 10:05:22;;;;;;;4.30;2.55;;;;;;;28.42;17.10;94932.69;5107480;28;20407;-77
2023/12/11 10:07:48;;;;;;;4.82;3.28;;;;;;;28.26;16.94;94929.72;5107929;28;20031;-76
2023/12/11 10:10:27;;;;;;;5.50;2.85;;;;;;;28.76;16.54;94936.06;5108383;28;20016;-78
2023/12/11 10:12:55;;;;;;;5.95;2.95;;;;;;;28.40;16.72;94924.00;5107925;28;20409;-76
2023/12/11 10:15:29;;;;;;;7.60;3.50;;;;;;;28.17;16.97;94938.72;5104683;28;20027;-76
2023/12/11 10:18:03;;;;;;;3.97;2.30;;;;;;;28.28;17.09;94934.84;5106403;28;20095;-76
2023/12/11 10:20:29;;;;;;;4.15;3.08;;;;;;;28.08;17.15;94929.97;5107294;28;20027;-76
2023/12/11 10:22:55;;;;;;;5.03;2.97;;;;;;;27.94;17.54;94924.41;5107511;28;20494;-76
2023/12/11 10:25:27;;;;;;;5.13;3.05;;;;;;;27.63;17.63;94925.41;5107686;28;20029;-76
2023/12/11 10:28:06;;;;;;;;;;;;;;;27.53;17.82;94923.09;5107491;28;20452;-75
2023/12/11 10:30:31;;;;;;;5.80;2.70;;;;;;;27.34;17.86;94911.22;5108532;28;19912;-76
2023/12/11 10:33:01;;;;;;;3.80;2.55;;;;;;;27.32;17.78;94911.03;5106362;28;20039;-76
2023/12/11 10:35:26;;;;;;;7.47;3.33;;;;;;;27.45;18.15;94916.59;5108314;28;20123;-76
2023/12/11 10:37:58;;;;;;;4.65;2.97;;;;;;;27.41;17.60;94916.19;5106981;27;20713;-76
2023/12/11 10:40:38;;;;;;;4.68;3.25;;;;;;;27.17;17.84;94908.78;5107404;28;20028;-76
2023/12/11 10:43:04;;;;;;;5.93;2.97;;;;;;;27.49;17.62;94904.97;5107776;28;20023;-76
2023/12/11 10:45:29;;;;;;;5.90;3.05;;;;;;;27.82;17.76;94920.38;5106502;28;20084;-76
2023/12/11 10:47:55;;;;;;;9.20;4.40;;;;;;;27.82;17.61;94911.13;5107030;28;20118;-77
2023/12/11 10:50:21;;;;;;;5.75;4.07;;;;;;;28.01;17.39;94906.00;5106234;28;20046;-77
2023/12/11 10:52:47;;;;;;;7.75;5.10;;;;;;;28.58;16.63;94903.94;5107287;28;20088;-77
2023/12/11 10:55:13;;;;;;;8.32;4.28;;;;;;;29.71;15.62;94900.56;5105521;28;20043;-77
2023/12/11 10:57:38;;;;;;;6.28;3.80;;;;;;;30.84;14.75;94901.72;5106861;28;20032;-77
2023/12/11 11:00:04;;;;;;;5.85;3.85;;;;;;;31.58;14.33;94891.91;5107417;28;20024;-76
2023/12/11 11:02:30;;;;;;;14.40;3.70;;;;;;;32.11;13.85;94896.44;5106648;28;20023;-77
2023/12/11 11:04:56;;;;;;;4.28;3.03;;;;;;;32.48;13.66;94883.22;5105896;28;20034;-77
2023/12/11 11:07:49;;;;;;;6.15;3.25;;;;;;;32.73;13.02;94879.53;5106071;28;20020;-78
2023/12/11 11:10:32;;;;;;;6.22;3.00;;;;;;;32.53;13.40;94872.94;5106225;28;20034;-77
2023/12/11 11:13:19;;;;;;;5.35;3.08;;;;;;;33.18;12.92;94866.09;5106502;28;20044;-77
2023/12/11 11:15:51;;;;;;;4.05;2.80;;;;;;;33.80;12.21;94850.38;5104260;28;20031;-75
2023/12/11 11:18:17;;;;;;;5.25;3.25;;;;;;;33.87;12.48;94862.22;5107368;28;20030;-76
2023/12/11 11:21:08;;;;;;;6.65;4.22;;;;;;;34.20;12.11;94865.50;5105656;28;20031;-78
2023/12/11 11:23:42;;;;;;;5.57;3.72;;;;;;;34.12;12.11;94867.72;5106570;28;20427;-78
2023/12/11 11:26:33;;;;;;;6.38;4.35;;;;;;;34.06;12.14;94868.00;5107258;28;20028;-76
2023/12/11 11:29:00;;;;;;;7.10;4.03;;;;;;;34.13;12.42;94857.84;5104419;28;20034;-76
2023/12/11 11:31:51;;;;;;;7.72;3.58;;;;;;;34.28;12.16;94837.59;5107153;28;20080;-76
2023/12/11 11:34:41;;;;;;;6.90;3.28;;;;;;;34.17;11.94;94843.88;5106394;28;20063;-76
2023/12/11 11:37:17;;;;;;;6.95;3.17;;;;;;;34.49;11.99;94849.19;5105885;28;20035;-76
2023/12/11 11:40:02;;;;;;;4.70;2.72;;;;;;;34.86;11.81;94843.31;5106928;28;20477;-77
2023/12/11 11:42:32;;;;;;;5.43;3.22;;;;;;;35.01;11.16;94845.91;5105800;28;20084;-76
2023/12/11 11:45:00;;;;;;;6.20;3.72;;;;;;;35.04;11.75;94844.69;5106270;28;20020;-77
2023/12/11 11:47:27;;;;;;;5.70;3.72;;;;;;;35.34;11.44;94833.94;5105121;28;20032;-75
2023/12/11 11:49:53;;;;;;;7.30;4.07;;;;;;;35.00;11.46;94824.41;5105826;28;20544;-75